sensor_id;sensor_type;location;lat;lon;timestamp;P1;durP1;ratioP1;P2;durP2;ratioP2
16775;SDS011;8505;49.456;8.164;2023-05-07T00:00:57;4.15;;;2.40;;
16775;SDS011;8505;49.456;8.164;2023-05-07T00:03:25;4.17;;;2.20;;
16775;SDS011;8505;49.456;8.164;2023-05-07T00:05:54;5.35;;;2.30;;
16775;SDS011;8505;49.456;8.164;2023-05-07T00:08:22;4.53;;;2.47;;
16775;SDS011;8505;49.456;8.164;2023-05-07T00:10:51;5.60;;;2.50;;
16775;SDS011;8505;49.456;8.164;2023-05-07T00:13:19;5.10;;;2.35;;
16775;SDS011;8505;49.456;8.164;2023-05-07T00:15:46;5.53;;;2.40;;
16775;SDS011;8505;49.456;8.164;2023-05-07T00:18:14;5.13;;;2.35;;
16775;SDS011;8505;49.456;8.164;2023-05-07T00:20:42;5.55;;;2.38;;
16775;SDS011;8505;49.456;8.164;2023-05-07T00:23:10;5.03;;;2.28;;
16775;SDS011;8505;49.456;8.164;2023-05-07T00:25:38;5.15;;;2.47;;
16775;SDS011;8505;49.456;8.164;2023-05-07T00:28:07;4.63;;;2.38;;
16775;SDS011;8505;49.456;8.164;2023-05-07T00:30:35;5.78;;;2.38;;
16775;SDS011;8505;49.456;8.164;2023-05-07T00:33:02;5.80;;;2.53;;
16775;SDS011;8505;49.456;8.164;2023-05-07T00:35:30;6.55;;;2.42;;
16775;SDS011;8505;49.456;8.164;2023-05-07T00:37:58;5.10;;;2.55;;
16775;SDS011;8505;49.456;8.164;2023-05-07T00:40:26;5.97;;;2.80;;
16775;SDS011;8505;49.456;8.164;2023-05-07T00:42:54;4.90;;;2.30;;
16775;SDS011;8505;49.456;8.164;2023-05-07T00:45:26;5.22;;;2.53;;
16775;SDS011;8505;49.456;8.164;2023-05-07T00:47:55;4.50;;;2.35;;
16775;SDS011;8505;49.456;8.164;2023-05-07T00:50:26;4.57;;;2.38;;
16775;SDS011;8505;49.456;8.164;2023-05-07T00:52:54;6.40;;;2.70;;
16775;SDS011;8505;49.456;8.164;2023-05-07T00:55:22;6.10;;;2.50;;
16775;SDS011;8505;49.456;8.164;2023-05-07T00:57:51;5.53;;;2.60;;
16775;SDS011;8505;49.456;8.164;2023-05-07T01:00:19;6.18;;;2.58;;
16775;SDS011;8505;49.456;8.164;2023-05-07T01:02:48;3.22;;;2.50;;
16775;SDS011;8505;49.456;8.164;2023-05-07T01:05:17;4.00;;;2.33;;
16775;SDS011;8505;49.456;8.164;2023-05-07T01:07:47;4.38;;;2.53;;
16775;SDS011;8505;49.456;8.164;2023-05-07T01:10:17;4.93;;;2.50;;
16775;SDS011;8505;49.456;8.164;2023-05-07T01:12:46;3.10;;;2.30;;
16775;SDS011;8505;49.456;8.164;2023-05-07T01:15:15;5.30;;;2.60;;
16775;SDS011;8505;49.456;8.164;2023-05-07T01:17:44;5.30;;;2.53;;
16775;SDS011;8505;49.456;8.164;2023-05-07T01:20:13;6.20;;;2.50;;
16775;SDS011;8505;49.456;8.164;2023-05-07T01:22:43;4.05;;;2.33;;
16775;SDS011;8505;49.456;8.164;2023-05-07T01:25:11;5.83;;;2.50;;
16775;SDS011;8505;49.456;8.164;2023-05-07T01:27:39;5.30;;;2.73;;
16775;SDS011;8505;49.456;8.164;2023-05-07T01:30:08;5.03;;;2.50;;
16775;SDS011;8505;49.456;8.164;2023-05-07T01:32:40;4.47;;;2.50;;
16775;SDS011;8505;49.456;8.164;2023-05-07T01:35:11;5.88;;;2.58;;
16775;SDS011;8505;49.456;8.164;2023-05-07T01:37:41;4.38;;;2.75;;
16775;SDS011;8505;49.456;8.164;2023-05-07T01:40:10;5.05;;;2.70;;
16775;SDS011;8505;49.456;8.164;2023-05-07T01:42:39;4.35;;;2.60;;
16775;SDS011;8505;49.456;8.164;2023-05-07T01:45:08;4.22;;;2.60;;
16775;SDS011;8505;49.456;8.164;2023-05-07T01:47:37;5.18;;;2.40;;
16775;SDS011;8505;49.456;8.164;2023-05-07T01:50:07;4.93;;;2.80;;
16775;SDS011;8505;49.456;8.164;2023-05-07T01:52:36;5.30;;;2.50;;
16775;SDS011;8505;49.456;8.164;2023-05-07T01:55:05;3.50;;;2.72;;
16775;SDS011;8505;49.456;8.164;2023-05-07T01:57:35;4.05;;;2.67;;
16775;SDS011;8505;49.456;8.164;2023-05-07T02:00:03;5.35;;;2.60;;
16775;SDS011;8505;49.456;8.164;2023-05-07T02:02:32;6.18;;;2.67;;
16775;SDS011;8505;49.456;8.164;2023-05-07T02:05:00;5.22;;;2.60;;
16775;SDS011;8505;49.456;8.164;2023-05-07T02:07:28;5.75;;;2.70;;
16775;SDS011;8505;49.456;8.164;2023-05-07T02:09:56;6.40;;;2.70;;
16775;SDS011;8505;49.456;8.164;2023-05-07T02:12:24;4.50;;;2.55;;
16775;SDS011;8505;49.456;8.164;2023-05-07T02:14:53;5.95;;;2.70;;
16775;SDS011;8505;49.456;8.164;2023-05-07T02:17:22;5.60;;;2.97;;
16775;SDS011;8505;49.456;8.164;2023-05-07T02:19:50;4.33;;;2.60;;
16775;SDS011;8505;49.456;8.164;2023-05-07T02:22:17;3.75;;;2.65;;
16775;SDS011;8505;49.456;8.164;2023-05-07T02:24:45;4.50;;;2.55;;
16775;SDS011;8505;49.456;8.164;2023-05-07T02:27:13;5.20;;;2.80;;
16775;SDS011;8505;49.456;8.164;2023-05-07T02:29:41;4.13;;;2.67;;
16775;SDS011;8505;49.456;8.164;2023-05-07T02:32:10;4.70;;;2.47;;
16775;SDS011;8505;49.456;8.164;2023-05-07T02:34:37;3.50;;;2.60;;
16775;SDS011;8505;49.456;8.164;2023-05-07T02:37:10;4.78;;;2.50;;
16775;SDS011;8505;49.456;8.164;2023-05-07T02:39:38;5.72;;;2.58;;
16775;SDS011;8505;49.456;8.164;2023-05-07T02:42:05;5.63;;;2.80;;
16775;SDS011;8505;49.456;8.164;2023-05-07T02:44:33;4.30;;;2.67;;
16775;SDS011;8505;49.456;8.164;2023-05-07T02:47:01;3.55;;;2.40;;
16775;SDS011;8505;49.456;8.164;2023-05-07T02:49:30;4.88;;;2.80;;
16775;SDS011;8505;49.456;8.164;2023-05-07T02:51:58;6.57;;;2.97;;
16775;SDS011;8505;49.456;8.164;2023-05-07T02:54:26;5.05;;;2.70;;
16775;SDS011;8505;49.456;8.164;2023-05-07T02:56:54;4.97;;;2.83;;
16775;SDS011;8505;49.456;8.164;2023-05-07T02:59:22;6.55;;;2.78;;
16775;SDS011;8505;49.456;8.164;2023-05-07T03:01:51;5.78;;;2.65;;
16775;SDS011;8505;49.456;8.164;2023-05-07T03:04:19;4.97;;;2.80;;
16775;SDS011;8505;49.456;8.164;2023-05-07T03:06:48;5.13;;;2.85;;
16775;SDS011;8505;49.456;8.164;2023-05-07T03:09:16;4.07;;;2.50;;
16775;SDS011;8505;49.456;8.164;2023-05-07T03:11:43;3.97;;;2.70;;
16775;SDS011;8505;49.456;8.164;2023-05-07T03:14:11;4.23;;;2.63;;
16775;SDS011;8505;49.456;8.164;2023-05-07T03:16:39;5.28;;;2.70;;
16775;SDS011;8505;49.456;8.164;2023-05-07T03:19:06;4.90;;;2.92;;
16775;SDS011;8505;49.456;8.164;2023-05-07T03:21:34;3.72;;;2.58;;
16775;SDS011;8505;49.456;8.164;2023-05-07T03:24:04;3.78;;;2.70;;
16775;SDS011;8505;49.456;8.164;2023-05-07T03:26:32;5.63;;;2.90;;
16775;SDS011;8505;49.456;8.164;2023-05-07T03:29:00;5.47;;;2.80;;
16775;SDS011;8505;49.456;8.164;2023-05-07T03:31:28;5.43;;;2.85;;
16775;SDS011;8505;49.456;8.164;2023-05-07T03:33:56;4.88;;;3.10;;
16775;SDS011;8505;49.456;8.164;2023-05-07T03:36:24;6.25;;;2.70;;
16775;SDS011;8505;49.456;8.164;2023-05-07T03:38:52;6.43;;;3.03;;
16775;SDS011;8505;49.456;8.164;2023-05-07T03:41:22;6.20;;;3.00;;
16775;SDS011;8505;49.456;8.164;2023-05-07T03:43:50;5.15;;;3.10;;
16775;SDS011;8505;49.456;8.164;2023-05-07T03:46:17;4.05;;;2.88;;
16775;SDS011;8505;49.456;8.164;2023-05-07T03:48:45;6.97;;;3.17;;
16775;SDS011;8505;49.456;8.164;2023-05-07T03:51:13;4.68;;;3.10;;
16775;SDS011;8505;49.456;8.164;2023-05-07T03:53:41;5.85;;;3.35;;
16775;SDS011;8505;49.456;8.164;2023-05-07T03:56:08;5.57;;;3.30;;
16775;SDS011;8505;49.456;8.164;2023-05-07T03:58:37;5.10;;;3.30;;
16775;SDS011;8505;49.456;8.164;2023-05-07T04:01:05;5.90;;;3.20;;
16775;SDS011;8505;49.456;8.164;2023-05-07T04:03:33;5.63;;;3.20;;
16775;SDS011;8505;49.456;8.164;2023-05-07T04:06:01;6.22;;;3.20;;
16775;SDS011;8505;49.456;8.164;2023-05-07T04:08:29;5.95;;;3.20;;
16775;SDS011;8505;49.456;8.164;2023-05-07T04:10:56;5.17;;;3.20;;
16775;SDS011;8505;49.456;8.164;2023-05-07T04:13:26;3.92;;;2.85;;
16775;SDS011;8505;49.456;8.164;2023-05-07T04:15:55;7.85;;;3.40;;
16775;SDS011;8505;49.456;8.164;2023-05-07T04:18:23;4.93;;;3.08;;
16775;SDS011;8505;49.456;8.164;2023-05-07T04:20:51;5.50;;;3.00;;
16775;SDS011;8505;49.456;8.164;2023-05-07T04:23:19;4.85;;;3.10;;
16775;SDS011;8505;49.456;8.164;2023-05-07T04:25:47;5.90;;;3.30;;
16775;SDS011;8505;49.456;8.164;2023-05-07T04:28:14;4.22;;;2.95;;
16775;SDS011;8505;49.456;8.164;2023-05-07T04:30:42;5.00;;;3.13;;
16775;SDS011;8505;49.456;8.164;2023-05-07T04:33:13;5.22;;;2.97;;
16775;SDS011;8505;49.456;8.164;2023-05-07T04:35:42;4.60;;;3.10;;
16775;SDS011;8505;49.456;8.164;2023-05-07T04:38:09;4.68;;;2.55;;
16775;SDS011;8505;49.456;8.164;2023-05-07T04:40:37;4.80;;;3.00;;
16775;SDS011;8505;49.456;8.164;2023-05-07T04:43:05;5.47;;;3.25;;
16775;SDS011;8505;49.456;8.164;2023-05-07T04:45:33;4.55;;;2.70;;
16775;SDS011;8505;49.456;8.164;2023-05-07T04:48:01;4.68;;;2.80;;
16775;SDS011;8505;49.456;8.164;2023-05-07T04:50:31;5.10;;;2.90;;
16775;SDS011;8505;49.456;8.164;2023-05-07T04:52:58;5.57;;;2.88;;
16775;SDS011;8505;49.456;8.164;2023-05-07T04:55:26;5.80;;;2.75;;
16775;SDS011;8505;49.456;8.164;2023-05-07T04:57:54;4.20;;;2.90;;
16775;SDS011;8505;49.456;8.164;2023-05-07T05:00:22;4.93;;;2.80;;
16775;SDS011;8505;49.456;8.164;2023-05-07T05:02:51;3.40;;;2.70;;
16775;SDS011;8505;49.456;8.164;2023-05-07T05:05:19;5.10;;;3.17;;
16775;SDS011;8505;49.456;8.164;2023-05-07T05:07:48;4.57;;;2.70;;
16775;SDS011;8505;49.456;8.164;2023-05-07T05:10:17;4.53;;;2.77;;
16775;SDS011;8505;49.456;8.164;2023-05-07T05:12:48;4.20;;;2.83;;
16775;SDS011;8505;49.456;8.164;2023-05-07T05:15:16;4.00;;;2.65;;
16775;SDS011;8505;49.456;8.164;2023-05-07T05:17:44;4.28;;;2.72;;
16775;SDS011;8505;49.456;8.164;2023-05-07T05:20:12;5.97;;;2.83;;
16775;SDS011;8505;49.456;8.164;2023-05-07T05:22:41;4.63;;;2.78;;
16775;SDS011;8505;49.456;8.164;2023-05-07T05:25:10;4.15;;;2.50;;
16775;SDS011;8505;49.456;8.164;2023-05-07T05:27:38;3.80;;;2.60;;
16775;SDS011;8505;49.456;8.164;2023-05-07T05:30:06;4.90;;;2.50;;
16775;SDS011;8505;49.456;8.164;2023-05-07T05:32:35;5.15;;;2.75;;
16775;SDS011;8505;49.456;8.164;2023-05-07T05:35:03;3.78;;;2.67;;
16775;SDS011;8505;49.456;8.164;2023-05-07T05:37:31;4.65;;;2.75;;
16775;SDS011;8505;49.456;8.164;2023-05-07T05:39:59;5.23;;;2.80;;
16775;SDS011;8505;49.456;8.164;2023-05-07T05:42:29;3.97;;;2.40;;
16775;SDS011;8505;49.456;8.164;2023-05-07T05:44:56;3.65;;;2.65;;
16775;SDS011;8505;49.456;8.164;2023-05-07T05:47:24;4.82;;;2.70;;
16775;SDS011;8505;49.456;8.164;2023-05-07T05:49:52;4.40;;;2.40;;
16775;SDS011;8505;49.456;8.164;2023-05-07T05:52:20;5.75;;;2.50;;
16775;SDS011;8505;49.456;8.164;2023-05-07T05:54:49;3.13;;;2.30;;
16775;SDS011;8505;49.456;8.164;2023-05-07T05:57:17;3.42;;;2.40;;
16775;SDS011;8505;49.456;8.164;2023-05-07T05:59:47;3.55;;;2.40;;
16775;SDS011;8505;49.456;8.164;2023-05-07T06:02:15;5.75;;;2.55;;
16775;SDS011;8505;49.456;8.164;2023-05-07T06:04:43;5.10;;;2.42;;
16775;SDS011;8505;49.456;8.164;2023-05-07T06:07:11;3.23;;;2.30;;
16775;SDS011;8505;49.456;8.164;2023-05-07T06:09:39;5.13;;;2.50;;
16775;SDS011;8505;49.456;8.164;2023-05-07T06:12:07;3.70;;;2.20;;
16775;SDS011;8505;49.456;8.164;2023-05-07T06:14:35;3.35;;;2.40;;
16775;SDS011;8505;49.456;8.164;2023-05-07T06:17:04;4.50;;;2.20;;
16775;SDS011;8505;49.456;8.164;2023-05-07T06:19:31;4.68;;;2.20;;
16775;SDS011;8505;49.456;8.164;2023-05-07T06:21:59;4.22;;;2.35;;
16775;SDS011;8505;49.456;8.164;2023-05-07T06:24:28;4.20;;;2.40;;
16775;SDS011;8505;49.456;8.164;2023-05-07T06:26:56;5.43;;;2.08;;
16775;SDS011;8505;49.456;8.164;2023-05-07T06:29:25;3.90;;;2.30;;
16775;SDS011;8505;49.456;8.164;2023-05-07T06:31:53;2.63;;;2.10;;
16775;SDS011;8505;49.456;8.164;2023-05-07T06:34:22;4.45;;;2.40;;
16775;SDS011;8505;49.456;8.164;2023-05-07T06:36:50;3.53;;;2.10;;
16775;SDS011;8505;49.456;8.164;2023-05-07T06:39:17;3.17;;;2.10;;
16775;SDS011;8505;49.456;8.164;2023-05-07T06:41:45;4.27;;;2.30;;
16775;SDS011;8505;49.456;8.164;2023-05-07T06:44:13;5.50;;;2.20;;
16775;SDS011;8505;49.456;8.164;2023-05-07T06:46:41;3.45;;;2.08;;
16775;SDS011;8505;49.456;8.164;2023-05-07T06:49:09;3.30;;;2.13;;
16775;SDS011;8505;49.456;8.164;2023-05-07T06:51:38;3.70;;;2.17;;
16775;SDS011;8505;49.456;8.164;2023-05-07T06:54:05;3.72;;;2.10;;
16775;SDS011;8505;49.456;8.164;2023-05-07T06:56:33;3.55;;;2.17;;
16775;SDS011;8505;49.456;8.164;2023-05-07T06:59:01;3.87;;;2.10;;
16775;SDS011;8505;49.456;8.164;2023-05-07T07:01:29;5.50;;;2.20;;
16775;SDS011;8505;49.456;8.164;2023-05-07T07:03:57;3.90;;;2.30;;
16775;SDS011;8505;49.456;8.164;2023-05-07T07:06:25;4.60;;;2.00;;
16775;SDS011;8505;49.456;8.164;2023-05-07T07:08:54;3.23;;;1.97;;
16775;SDS011;8505;49.456;8.164;2023-05-07T07:11:22;4.45;;;2.10;;
16775;SDS011;8505;49.456;8.164;2023-05-07T07:13:50;2.92;;;2.15;;
16775;SDS011;8505;49.456;8.164;2023-05-07T07:16:18;3.43;;;2.03;;
16775;SDS011;8505;49.456;8.164;2023-05-07T07:18:45;3.67;;;2.00;;
16775;SDS011;8505;49.456;8.164;2023-05-07T07:21:13;3.83;;;1.92;;
16775;SDS011;8505;49.456;8.164;2023-05-07T07:23:41;3.73;;;2.70;;
16775;SDS011;8505;49.456;8.164;2023-05-07T07:26:10;5.85;;;2.30;;
16775;SDS011;8505;49.456;8.164;2023-05-07T07:28:42;4.15;;;2.30;;
16775;SDS011;8505;49.456;8.164;2023-05-07T07:31:11;4.22;;;2.65;;
16775;SDS011;8505;49.456;8.164;2023-05-07T07:33:39;3.75;;;2.30;;
16775;SDS011;8505;49.456;8.164;2023-05-07T07:36:07;4.47;;;2.15;;
16775;SDS011;8505;49.456;8.164;2023-05-07T07:38:35;2.80;;;2.17;;
16775;SDS011;8505;49.456;8.164;2023-05-07T07:41:03;5.30;;;2.20;;
16775;SDS011;8505;49.456;8.164;2023-05-07T07:43:32;3.28;;;2.08;;
16775;SDS011;8505;49.456;8.164;2023-05-07T07:46:00;3.10;;;1.77;;
16775;SDS011;8505;49.456;8.164;2023-05-07T07:48:27;4.43;;;2.10;;
16775;SDS011;8505;49.456;8.164;2023-05-07T07:50:55;3.25;;;1.80;;
16775;SDS011;8505;49.456;8.164;2023-05-07T07:53:23;6.55;;;2.10;;
16775;SDS011;8505;49.456;8.164;2023-05-07T07:55:51;3.47;;;1.90;;
16775;SDS011;8505;49.456;8.164;2023-05-07T07:58:24;4.05;;;1.88;;
16775;SDS011;8505;49.456;8.164;2023-05-07T08:00:53;3.10;;;2.00;;
16775;SDS011;8505;49.456;8.164;2023-05-07T08:03:22;3.88;;;1.95;;
16775;SDS011;8505;49.456;8.164;2023-05-07T08:05:50;3.50;;;2.10;;
16775;SDS011;8505;49.456;8.164;2023-05-07T08:08:17;4.63;;;2.20;;
16775;SDS011;8505;49.456;8.164;2023-05-07T08:10:45;5.18;;;2.03;;
16775;SDS011;8505;49.456;8.164;2023-05-07T08:13:16;3.97;;;2.10;;
16775;SDS011;8505;49.456;8.164;2023-05-07T08:15:44;3.95;;;1.90;;
16775;SDS011;8505;49.456;8.164;2023-05-07T08:18:13;3.22;;;2.25;;
16775;SDS011;8505;49.456;8.164;2023-05-07T08:20:41;4.50;;;2.30;;
16775;SDS011;8505;49.456;8.164;2023-05-07T08:23:09;3.83;;;2.35;;
16775;SDS011;8505;49.456;8.164;2023-05-07T08:25:37;4.30;;;2.25;;
16775;SDS011;8505;49.456;8.164;2023-05-07T08:28:05;3.85;;;2.35;;
16775;SDS011;8505;49.456;8.164;2023-05-07T08:30:35;3.53;;;2.50;;
16775;SDS011;8505;49.456;8.164;2023-05-07T08:33:03;3.63;;;2.30;;
16775;SDS011;8505;49.456;8.164;2023-05-07T08:35:32;2.85;;;2.10;;
16775;SDS011;8505;49.456;8.164;2023-05-07T08:38:00;3.05;;;1.92;;
16775;SDS011;8505;49.456;8.164;2023-05-07T08:40:28;3.97;;;2.17;;
16775;SDS011;8505;49.456;8.164;2023-05-07T08:42:56;3.85;;;2.33;;
16775;SDS011;8505;49.456;8.164;2023-05-07T08:45:25;4.55;;;2.30;;
16775;SDS011;8505;49.456;8.164;2023-05-07T08:47:57;4.63;;;2.50;;
16775;SDS011;8505;49.456;8.164;2023-05-07T08:50:27;4.18;;;2.15;;
16775;SDS011;8505;49.456;8.164;2023-05-07T08:52:56;3.25;;;2.17;;
16775;SDS011;8505;49.456;8.164;2023-05-07T08:55:24;3.75;;;2.20;;
16775;SDS011;8505;49.456;8.164;2023-05-07T08:57:52;3.30;;;1.98;;
16775;SDS011;8505;49.456;8.164;2023-05-07T09:00:20;5.13;;;2.20;;
16775;SDS011;8505;49.456;8.164;2023-05-07T09:02:48;4.68;;;2.20;;
16775;SDS011;8505;49.456;8.164;2023-05-07T09:05:16;3.95;;;2.05;;
16775;SDS011;8505;49.456;8.164;2023-05-07T09:07:44;2.80;;;2.00;;
16775;SDS011;8505;49.456;8.164;2023-05-07T09:10:14;3.25;;;2.00;;
16775;SDS011;8505;49.456;8.164;2023-05-07T09:12:42;5.25;;;1.73;;
16775;SDS011;8505;49.456;8.164;2023-05-07T09:15:10;3.67;;;1.92;;
16775;SDS011;8505;49.456;8.164;2023-05-07T09:17:38;3.70;;;2.00;;
16775;SDS011;8505;49.456;8.164;2023-05-07T09:20:07;3.45;;;1.92;;
16775;SDS011;8505;49.456;8.164;2023-05-07T09:22:36;3.72;;;1.90;;
16775;SDS011;8505;49.456;8.164;2023-05-07T09:25:05;4.13;;;1.88;;
16775;SDS011;8505;49.456;8.164;2023-05-07T09:27:36;4.18;;;2.00;;
16775;SDS011;8505;49.456;8.164;2023-05-07T09:30:04;4.97;;;2.10;;
16775;SDS011;8505;49.456;8.164;2023-05-07T09:32:34;3.40;;;1.88;;
16775;SDS011;8505;49.456;8.164;2023-05-07T09:35:04;3.60;;;2.27;;
16775;SDS011;8505;49.456;8.164;2023-05-07T09:37:32;3.53;;;2.10;;
16775;SDS011;8505;49.456;8.164;2023-05-07T09:40:00;3.50;;;2.00;;
16775;SDS011;8505;49.456;8.164;2023-05-07T09:42:29;4.65;;;2.17;;
16775;SDS011;8505;49.456;8.164;2023-05-07T09:44:58;4.70;;;2.20;;
16775;SDS011;8505;49.456;8.164;2023-05-07T09:47:26;3.63;;;2.08;;
16775;SDS011;8505;49.456;8.164;2023-05-07T09:50:00;2.80;;;2.03;;
16775;SDS011;8505;49.456;8.164;2023-05-07T09:52:33;3.55;;;1.92;;
16775;SDS011;8505;49.456;8.164;2023-05-07T09:55:01;3.50;;;2.00;;
16775;SDS011;8505;49.456;8.164;2023-05-07T09:57:30;4.10;;;2.22;;
16775;SDS011;8505;49.456;8.164;2023-05-07T10:00:00;6.40;;;2.42;;
16775;SDS011;8505;49.456;8.164;2023-05-07T10:02:30;3.60;;;2.00;;
16775;SDS011;8505;49.456;8.164;2023-05-07T10:05:00;3.60;;;2.05;;
16775;SDS011;8505;49.456;8.164;2023-05-07T10:07:29;3.88;;;2.30;;
16775;SDS011;8505;49.456;8.164;2023-05-07T10:09:57;4.03;;;2.30;;
16775;SDS011;8505;49.456;8.164;2023-05-07T10:12:27;4.82;;;2.30;;
16775;SDS011;8505;49.456;8.164;2023-05-07T10:14:56;4.55;;;2.15;;
16775;SDS011;8505;49.456;8.164;2023-05-07T10:17:25;3.80;;;2.53;;
16775;SDS011;8505;49.456;8.164;2023-05-07T10:19:53;3.30;;;2.00;;
16775;SDS011;8505;49.456;8.164;2023-05-07T10:22:22;4.50;;;2.40;;
16775;SDS011;8505;49.456;8.164;2023-05-07T10:24:53;4.75;;;2.40;;
16775;SDS011;8505;49.456;8.164;2023-05-07T10:27:26;3.78;;;2.30;;
16775;SDS011;8505;49.456;8.164;2023-05-07T10:29:56;5.50;;;2.70;;
16775;SDS011;8505;49.456;8.164;2023-05-07T10:32:38;3.83;;;2.28;;
16775;SDS011;8505;49.456;8.164;2023-05-07T10:35:09;4.47;;;2.78;;
16775;SDS011;8505;49.456;8.164;2023-05-07T10:37:41;3.63;;;2.30;;
16775;SDS011;8505;49.456;8.164;2023-05-07T10:40:09;4.63;;;2.97;;
16775;SDS011;8505;49.456;8.164;2023-05-07T10:42:38;4.55;;;2.15;;
16775;SDS011;8505;49.456;8.164;2023-05-07T10:45:12;4.22;;;2.80;;
16775;SDS011;8505;49.456;8.164;2023-05-07T10:50:43;4.43;;;2.80;;
16775;SDS011;8505;49.456;8.164;2023-05-07T10:53:22;3.67;;;2.88;;
16775;SDS011;8505;49.456;8.164;2023-05-07T10:58:54;5.30;;;2.63;;
16775;SDS011;8505;49.456;8.164;2023-05-07T11:04:25;4.68;;;2.58;;
16775;SDS011;8505;49.456;8.164;2023-05-07T11:07:09;4.57;;;3.05;;
16775;SDS011;8505;49.456;8.164;2023-05-07T11:10:00;4.70;;;2.87;;
16775;SDS011;8505;49.456;8.164;2023-05-07T11:12:51;5.40;;;3.20;;
16775;SDS011;8505;49.456;8.164;2023-05-07T11:15:43;4.40;;;3.50;;
16775;SDS011;8505;49.456;8.164;2023-05-07T11:18:13;4.93;;;3.20;;
16775;SDS011;8505;49.456;8.164;2023-05-07T11:20:46;5.78;;;2.97;;
16775;SDS011;8505;49.456;8.164;2023-05-07T11:26:26;6.10;;;3.50;;
16775;SDS011;8505;49.456;8.164;2023-05-07T11:28:55;5.60;;;3.55;;
16775;SDS011;8505;49.456;8.164;2023-05-07T11:31:24;5.47;;;2.83;;
16775;SDS011;8505;49.456;8.164;2023-05-07T11:33:55;4.50;;;2.72;;
16775;SDS011;8505;49.456;8.164;2023-05-07T11:36:24;5.35;;;3.30;;
16775;SDS011;8505;49.456;8.164;2023-05-07T11:38:53;5.78;;;3.60;;
16775;SDS011;8505;49.456;8.164;2023-05-07T11:41:20;5.35;;;2.90;;
16775;SDS011;8505;49.456;8.164;2023-05-07T11:43:55;5.88;;;3.10;;
16775;SDS011;8505;49.456;8.164;2023-05-07T11:46:24;4.18;;;2.97;;
16775;SDS011;8505;49.456;8.164;2023-05-07T11:48:54;5.97;;;3.05;;
16775;SDS011;8505;49.456;8.164;2023-05-07T11:51:24;5.63;;;3.30;;
16775;SDS011;8505;49.456;8.164;2023-05-07T11:53:53;4.10;;;2.60;;
16775;SDS011;8505;49.456;8.164;2023-05-07T11:56:21;4.15;;;2.92;;
16775;SDS011;8505;49.456;8.164;2023-05-07T11:58:48;4.90;;;2.83;;
16775;SDS011;8505;49.456;8.164;2023-05-07T12:01:18;4.28;;;3.22;;
16775;SDS011;8505;49.456;8.164;2023-05-07T12:03:46;4.67;;;2.90;;
16775;SDS011;8505;49.456;8.164;2023-05-07T12:06:14;4.45;;;2.60;;
16775;SDS011;8505;49.456;8.164;2023-05-07T12:08:45;4.53;;;2.85;;
16775;SDS011;8505;49.456;8.164;2023-05-07T12:11:14;3.55;;;2.95;;
16775;SDS011;8505;49.456;8.164;2023-05-07T12:13:44;3.72;;;2.67;;
16775;SDS011;8505;49.456;8.164;2023-05-07T12:16:12;4.13;;;2.70;;
16775;SDS011;8505;49.456;8.164;2023-05-07T12:18:40;4.38;;;2.70;;
16775;SDS011;8505;49.456;8.164;2023-05-07T12:21:08;5.03;;;2.70;;
16775;SDS011;8505;49.456;8.164;2023-05-07T12:23:37;5.28;;;2.42;;
16775;SDS011;8505;49.456;8.164;2023-05-07T12:26:06;4.53;;;2.28;;
16775;SDS011;8505;49.456;8.164;2023-05-07T12:28:37;3.00;;;2.20;;
16775;SDS011;8505;49.456;8.164;2023-05-07T12:31:06;4.15;;;2.40;;
16775;SDS011;8505;49.456;8.164;2023-05-07T12:33:34;3.63;;;2.10;;
16775;SDS011;8505;49.456;8.164;2023-05-07T12:36:03;4.00;;;1.80;;
16775;SDS011;8505;49.456;8.164;2023-05-07T12:38:36;2.78;;;1.90;;
16775;SDS011;8505;49.456;8.164;2023-05-07T12:41:08;3.33;;;1.90;;
16775;SDS011;8505;49.456;8.164;2023-05-07T12:43:38;10.15;;;6.90;;
16775;SDS011;8505;49.456;8.164;2023-05-07T12:46:06;3.60;;;2.13;;
16775;SDS011;8505;49.456;8.164;2023-05-07T12:48:36;4.75;;;2.00;;
16775;SDS011;8505;49.456;8.164;2023-05-07T12:51:05;5.83;;;2.40;;
16775;SDS011;8505;49.456;8.164;2023-05-07T12:53:33;3.63;;;2.60;;
16775;SDS011;8505;49.456;8.164;2023-05-07T12:56:09;4.05;;;2.55;;
16775;SDS011;8505;49.456;8.164;2023-05-07T12:58:37;4.00;;;2.60;;
16775;SDS011;8505;49.456;8.164;2023-05-07T13:01:05;4.65;;;2.30;;
16775;SDS011;8505;49.456;8.164;2023-05-07T13:03:36;4.18;;;2.20;;
16775;SDS011;8505;49.456;8.164;2023-05-07T13:06:06;2.58;;;2.15;;
16775;SDS011;8505;49.456;8.164;2023-05-07T13:08:36;4.50;;;2.20;;
16775;SDS011;8505;49.456;8.164;2023-05-07T13:11:07;3.15;;;1.90;;
16775;SDS011;8505;49.456;8.164;2023-05-07T13:13:38;3.00;;;2.00;;
16775;SDS011;8505;49.456;8.164;2023-05-07T13:16:07;3.13;;;1.95;;
16775;SDS011;8505;49.456;8.164;2023-05-07T13:18:37;3.72;;;2.00;;
16775;SDS011;8505;49.456;8.164;2023-05-07T13:21:06;6.15;;;3.60;;
16775;SDS011;8505;49.456;8.164;2023-05-07T13:23:34;4.85;;;2.35;;
16775;SDS011;8505;49.456;8.164;2023-05-07T13:26:02;4.47;;;2.20;;
16775;SDS011;8505;49.456;8.164;2023-05-07T13:28:51;3.50;;;2.03;;
16775;SDS011;8505;49.456;8.164;2023-05-07T13:31:18;3.50;;;1.90;;
16775;SDS011;8505;49.456;8.164;2023-05-07T13:33:47;4.23;;;2.00;;
16775;SDS011;8505;49.456;8.164;2023-05-07T13:36:15;5.38;;;2.10;;
16775;SDS011;8505;49.456;8.164;2023-05-07T13:38:42;3.73;;;2.00;;
16775;SDS011;8505;49.456;8.164;2023-05-07T13:41:10;4.40;;;2.10;;
16775;SDS011;8505;49.456;8.164;2023-05-07T13:43:39;2.90;;;2.08;;
16775;SDS011;8505;49.456;8.164;2023-05-07T13:46:08;4.87;;;2.20;;
16775;SDS011;8505;49.456;8.164;2023-05-07T13:48:36;3.27;;;2.17;;
16775;SDS011;8505;49.456;8.164;2023-05-07T13:51:04;3.47;;;2.50;;
16775;SDS011;8505;49.456;8.164;2023-05-07T13:53:32;4.63;;;2.10;;
16775;SDS011;8505;49.456;8.164;2023-05-07T13:55:59;3.63;;;2.40;;
16775;SDS011;8505;49.456;8.164;2023-05-07T13:58:27;4.18;;;2.35;;
16775;SDS011;8505;49.456;8.164;2023-05-07T14:00:55;3.40;;;2.60;;
16775;SDS011;8505;49.456;8.164;2023-05-07T14:03:24;3.33;;;2.20;;
16775;SDS011;8505;49.456;8.164;2023-05-07T14:05:52;4.13;;;2.50;;
16775;SDS011;8505;49.456;8.164;2023-05-07T14:08:20;4.35;;;2.88;;
16775;SDS011;8505;49.456;8.164;2023-05-07T14:10:48;6.30;;;4.13;;
16775;SDS011;8505;49.456;8.164;2023-05-07T14:13:15;60.55;;;40.03;;
16775;SDS011;8505;49.456;8.164;2023-05-07T14:15:43;81.03;;;52.23;;
16775;SDS011;8505;49.456;8.164;2023-05-07T14:18:13;27.00;;;20.43;;
16775;SDS011;8505;49.456;8.164;2023-05-07T14:20:42;57.83;;;46.38;;
16775;SDS011;8505;49.456;8.164;2023-05-07T14:23:13;9.20;;;7.22;;
16775;SDS011;8505;49.456;8.164;2023-05-07T14:25:41;5.32;;;3.42;;
16775;SDS011;8505;49.456;8.164;2023-05-07T14:28:09;6.68;;;3.75;;
16775;SDS011;8505;49.456;8.164;2023-05-07T14:30:37;6.45;;;4.32;;
16775;SDS011;8505;49.456;8.164;2023-05-07T14:33:05;5.20;;;2.72;;
16775;SDS011;8505;49.456;8.164;2023-05-07T14:35:33;4.65;;;2.75;;
16775;SDS011;8505;49.456;8.164;2023-05-07T14:38:03;5.93;;;4.07;;
16775;SDS011;8505;49.456;8.164;2023-05-07T14:40:30;7.60;;;6.63;;
16775;SDS011;8505;49.456;8.164;2023-05-07T14:42:58;9.13;;;7.25;;
16775;SDS011;8505;49.456;8.164;2023-05-07T14:45:26;10.60;;;8.90;;
16775;SDS011;8505;49.456;8.164;2023-05-07T14:47:54;6.50;;;4.10;;
16775;SDS011;8505;49.456;8.164;2023-05-07T14:50:21;5.15;;;3.70;;
16775;SDS011;8505;49.456;8.164;2023-05-07T14:52:49;6.15;;;3.70;;
16775;SDS011;8505;49.456;8.164;2023-05-07T14:55:18;6.22;;;3.40;;
16775;SDS011;8505;49.456;8.164;2023-05-07T14:57:46;5.63;;;3.50;;
16775;SDS011;8505;49.456;8.164;2023-05-07T15:00:14;5.80;;;3.97;;
16775;SDS011;8505;49.456;8.164;2023-05-07T15:02:42;5.57;;;3.80;;
16775;SDS011;8505;49.456;8.164;2023-05-07T15:05:10;7.35;;;3.92;;
16775;SDS011;8505;49.456;8.164;2023-05-07T15:07:39;7.20;;;4.17;;
16775;SDS011;8505;49.456;8.164;2023-05-07T15:10:06;6.78;;;4.20;;
16775;SDS011;8505;49.456;8.164;2023-05-07T15:12:36;7.65;;;4.90;;
16775;SDS011;8505;49.456;8.164;2023-05-07T15:15:04;6.47;;;3.67;;
16775;SDS011;8505;49.456;8.164;2023-05-07T15:17:33;6.05;;;3.20;;
16775;SDS011;8505;49.456;8.164;2023-05-07T15:20:01;5.00;;;2.90;;
16775;SDS011;8505;49.456;8.164;2023-05-07T15:22:31;5.93;;;2.90;;